CST,Max TemperatureF,Mean TemperatureF,Min TemperatureF,Max Dew PointF,MeanDew PointF,Min DewpointF,Max Humidity, Mean Humidity, Min Humidity, Max Sea Level PressureIn, Mean Sea Level PressureIn, Min Sea Level PressureIn, Max VisibilityMiles, Mean VisibilityMiles, Min VisibilityMiles, Max Wind SpeedMPH, Mean Wind SpeedMPH, Max Gust SpeedMPH,PrecipitationIn, CloudCover, Events, WindDirDegrees
2012-11-1,69,54,39,42,38,33,82,63,36,30.00,29.96,29.92,10,10,8,13,4,20,0.00,1,,345
2012-11-2,61,50,39,38,32,29,83,60,35,30.03,29.96,29.88,10,10,8,16,7,23,0.00,0,,81
2012-11-3,57,44,32,33,31,28,88,65,39,30.22,30.16,30.04,10,10,10,9,6,,0.00,0,,335
2012-11-4,63,48,32,46,36,28,86,67,38,30.22,30.12,30.01,10,10,8,16,4,21,0.05,4,Rain,178
2012-11-5,48,45,42,45,42,39,100,89,81,30.14,30.07,30.00,10,6,2,16,9,25,0.03,8,Rain,343
2012-11-6,59,48,35,40,34,28,92,67,32,30.09,30.04,29.99,10,9,5,20,8,32,0.00,2,,281
2012-11-7,55,44,32,34,29,27,82,64,38,30.21,30.13,30.09,10,10,9,9,6,,0.00,0,,308
2012-11-8,69,52,35,41,36,30,85,61,33,30.08,29.94,29.85,10,10,9,16,10,25,0.00,0,,150
2012-11-9,73,60,46,57,49,41,83,68,48,29.84,29.76,29.68,10,10,10,17,9,23,0.00,0,,147
2012-11-10,73,65,57,57,56,53,100,67,53,29.69,29.63,29.55,10,9,2,30,18,44,0.46,3,Rain-Thunderstorm,188
2012-11-11,57,42,25,57,30,17,100,82,59,30.25,29.91,29.65,10,9,5,21,14,34,0.67,6,Rain-Thunderstorm,309
2012-11-12,44,32,21,21,18,15,80,60,34,30.43,30.34,30.25,10,10,10,23,10,29,0.00,0,,260
2012-11-13,55,38,21,33,26,17,85,62,34,30.43,30.37,30.30,10,10,10,10,4,,0.00,1,,170
2012-11-14,57,44,30,30,28,24,82,52,28,30.38,30.31,30.25,10,10,10,13,8,21,0.00,1,,185
2012-11-15,55,46,36,34,31,29,79,60,40,30.42,30.31,30.22,10,10,10,9,6,,0.00,2,,297
2012-11-16,57,42,27,38,32,25,92,72,44,30.48,30.41,30.35,10,10,7,9,4,,0.00,0,,149
2012-11-17,62,48,34,37,32,29,89,61,32,30.35,30.29,30.22,10,10,10,20,8,28,0.00,0,,163
2012-11-18,62,50,39,37,33,29,68,50,34,30.22,30.15,30.08,10,10,10,22,10,30,0.00,3,,160
2012-11-19,66,54,41,45,40,35,83,63,44,30.13,30.07,30.03,10,10,10,16,10,21,0.00,0,,234
2012-11-20,63,49,35,40,36,32,89,69,41,30.24,30.18,30.13,10,10,8,9,5,,0.00,0,,266
2012-11-21,73,55,37,45,40,34,86,56,34,30.17,30.05,29.87,10,10,10,22,10,30,0.00,0,,188
2012-11-22,71,54,37,50,41,30,76,57,32,30.26,29.94,29.77,10,10,10,22,13,32,0.00,0,,257
2012-11-23,41,31,21,30,13,9,73,49,33,30.53,30.45,30.26,10,10,10,29,13,41,0.00,0,,312
2012-11-24,48,32,16,25,17,10,84,53,32,30.43,30.14,29.88,10,10,6,17,6,24,0.00,0,,161
2012-11-25,48,38,28,29,26,23,82,63,46,30.14,29.99,29.88,10,10,10,12,4,,0.00,0,,9
2012-11-26,36,26,17,25,21,11,82,70,59,30.51,30.35,30.14,10,10,10,14,7,22,0.00,3,,12
2012-11-27,42,26,10,19,15,7,92,67,40,30.50,30.38,30.27,10,10,6,15,4,22,0.00,0,,201
2012-11-28,52,35,18,28,24,15,89,65,40,30.43,30.30,30.15,10,10,6,10,5,,0.00,0,,173
2012-11-29,57,44,32,38,33,28,89,72,49,30.13,30.02,29.95,10,10,10,10,6,,0.00,0,,172
2012-11-30,51,40,28,34,31,27,96,75,52,30.11,30.04,29.97,10,8,7,7,4,,0.00,1,,239